Katrina — V2DW3 — position and weather

sailwx.info

Track history (hours):
 
Tides and Currents Weather Stations Pressure Air Temp Water Temp Dewpoint Dewpoint Depression Visibility Wind Speed Wind Dir Waves Ship Positions

Katrina

Last reported at 2017-Nov-17 15:31 UTC. Time now 2017-Nov-21 19:03 UTC.
Position N 34°33' E 134°45'.

Length 133 m; draft 7.2 m.

MMSI: 305354000.

Date/timePositionNaut miles runAvg speedWind from/ knotsBaromVisibWave heightAir tempDewpointWater temp
2017-Nov-17 15:31N 34°33' E 134°45'112.2
2017-Nov-17 15:27N 34°33' E 134°46'512.0
2017-Nov-17 15:00N 34°35' E 134°52'610.9
2017-Nov-17 14:29N 34°37' E 134°59'510.6
2017-Nov-17 14:00N 34°36' E 135°04'611.7
2017-Nov-17 13:30N 34°36' E 135°12'612.9
2017-Nov-17 13:00N 34°37' E 135°19'611.2
2017-Nov-17 12:30N 34°39' E 135°26'1 0.1
2017-Nov-17 04:37N 34°38' E 135°26'0 0.2
2017-Nov-17 04:30N 34°38' E 135°26'2 4.2
2017-Nov-17 03:59N 34°38' E 135°24'4 9.0
2017-Nov-17 03:30N 34°37' E 135°19'5 9.7
2017-Nov-17 03:00N 34°40' E 135°14'0 0.2
2017-Nov-17 02:19N 34°40' E 135°14'0 0.0
2017-Nov-17 01:55N 34°40' E 135°14'0 0.0
2017-Nov-17 01:13N 34°40' E 135°14'0 0.0
2017-Nov-17 00:55N 34°40' E 135°14'0 0.0
2017-Nov-17 00:30N 34°40' E 135°14'0 0.0
2017-Nov-16 23:56N 34°40' E 135°14'0 0.0
2017-Nov-16 23:29N 34°40' E 135°14'0 0.0
2017-Nov-16 22:59N 34°40' E 135°14'1 1.2
2017-Nov-16 22:30N 34°40' E 135°15'4 8.1
2017-Nov-16 22:00N 34°36' E 135°17'510.2
2017-Nov-16 21:31N 34°33' E 135°22'2 3.7
2017-Nov-16 20:54N 34°32' E 135°24'0 0.0
2017-Nov-16 20:30N 34°32' E 135°24'0 0.1
2017-Nov-16 20:00N 34°32' E 135°24'0 0.1
2017-Nov-16 19:30N 34°32' E 135°24'0 0.0
2017-Nov-16 19:00N 34°32' E 135°24'0 0.0
2017-Nov-16 18:30N 34°32' E 135°24'0 0.0
2017-Nov-16 18:00N 34°32' E 135°24'0 0.0
2017-Nov-16 17:24N 34°32' E 135°24'0 0.0
2017-Nov-16 17:00N 34°32' E 135°24'0 0.0
2017-Nov-16 16:29N 34°32' E 135°24'0 0.0
2017-Nov-16 15:59N 34°32' E 135°24'0 0.0
2017-Nov-16 15:30N 34°32' E 135°24'0 0.0
2017-Nov-16 14:56N 34°32' E 135°24'0 0.0
2017-Nov-16 14:26N 34°32' E 135°24'0 0.0
2017-Nov-16 13:49N 34°32' E 135°24'0 0.0
2017-Nov-16 13:25N 34°32' E 135°24'0 0.0
2017-Nov-16 12:55N 34°32' E 135°24'0 0.0
2017-Nov-16 12:25N 34°32' E 135°24'0 0.0
2017-Nov-16 11:55N 34°32' E 135°24'0 0.0
2017-Nov-16 11:25N 34°32' E 135°24'0 0.0
2017-Nov-16 10:50N 34°32' E 135°24'0 0.0
2017-Nov-16 10:27N 34°32' E 135°24'1 1.7
2017-Nov-16 10:00N 34°32' E 135°24'4 7.3
2017-Nov-16 09:28N 34°33' E 135°19'4 9.2
2017-Nov-16 09:00N 34°34' E 135°14'5 9.5
2017-Nov-16 08:30N 34°34' E 135°08'510.7
2017-Nov-16 08:00N 34°36' E 135°02'  
Track history (hours):
 
Tides and Currents Weather Stations Pressure Air Temp Water Temp Dewpoint Dewpoint Depression Visibility Wind Speed Wind Dir Waves Ship Positions

Katrina

Last reported at 2017-Nov-17 15:31 UTC. Time now 2017-Nov-21 19:03 UTC.
Position N 34°33' E 134°45'.

Length 133 m; draft 7.2 m.

MMSI: 305354000.

Date/timePositionNaut miles runAvg speedWind from/ knotsBaromVisibWave heightAir tempDewpointWater temp
2017-Nov-17 15:31N 34°33' E 134°45'112.2
2017-Nov-17 15:27N 34°33' E 134°46'512.0
2017-Nov-17 15:00N 34°35' E 134°52'610.9
2017-Nov-17 14:29N 34°37' E 134°59'510.6
2017-Nov-17 14:00N 34°36' E 135°04'611.7
2017-Nov-17 13:30N 34°36' E 135°12'612.9
2017-Nov-17 13:00N 34°37' E 135°19'611.2
2017-Nov-17 12:30N 34°39' E 135°26'1 0.1
2017-Nov-17 04:37N 34°38' E 135°26'0 0.2
2017-Nov-17 04:30N 34°38' E 135°26'2 4.2
2017-Nov-17 03:59N 34°38' E 135°24'4 9.0
2017-Nov-17 03:30N 34°37' E 135°19'5 9.7
2017-Nov-17 03:00N 34°40' E 135°14'0 0.2
2017-Nov-17 02:19N 34°40' E 135°14'0 0.0
2017-Nov-17 01:55N 34°40' E 135°14'0 0.0
2017-Nov-17 01:13N 34°40' E 135°14'0 0.0
2017-Nov-17 00:55N 34°40' E 135°14'0 0.0
2017-Nov-17 00:30N 34°40' E 135°14'0 0.0
2017-Nov-16 23:56N 34°40' E 135°14'0 0.0
2017-Nov-16 23:29N 34°40' E 135°14'0 0.0
2017-Nov-16 22:59N 34°40' E 135°14'1 1.2
2017-Nov-16 22:30N 34°40' E 135°15'4 8.1
2017-Nov-16 22:00N 34°36' E 135°17'510.2
2017-Nov-16 21:31N 34°33' E 135°22'2 3.7
2017-Nov-16 20:54N 34°32' E 135°24'0 0.0
2017-Nov-16 20:30N 34°32' E 135°24'0 0.1
2017-Nov-16 20:00N 34°32' E 135°24'0 0.1
2017-Nov-16 19:30N 34°32' E 135°24'0 0.0
2017-Nov-16 19:00N 34°32' E 135°24'0 0.0
2017-Nov-16 18:30N 34°32' E 135°24'0 0.0
2017-Nov-16 18:00N 34°32' E 135°24'0 0.0
2017-Nov-16 17:24N 34°32' E 135°24'0 0.0
2017-Nov-16 17:00N 34°32' E 135°24'0 0.0
2017-Nov-16 16:29N 34°32' E 135°24'0 0.0
2017-Nov-16 15:59N 34°32' E 135°24'0 0.0
2017-Nov-16 15:30N 34°32' E 135°24'0 0.0
2017-Nov-16 14:56N 34°32' E 135°24'0 0.0
2017-Nov-16 14:26N 34°32' E 135°24'0 0.0
2017-Nov-16 13:49N 34°32' E 135°24'0 0.0
2017-Nov-16 13:25N 34°32' E 135°24'0 0.0
2017-Nov-16 12:55N 34°32' E 135°24'0 0.0
2017-Nov-16 12:25N 34°32' E 135°24'0 0.0
2017-Nov-16 11:55N 34°32' E 135°24'0 0.0
2017-Nov-16 11:25N 34°32' E 135°24'0 0.0
2017-Nov-16 10:50N 34°32' E 135°24'0 0.0
2017-Nov-16 10:27N 34°32' E 135°24'1 1.7
2017-Nov-16 10:00N 34°32' E 135°24'4 7.3
2017-Nov-16 09:28N 34°33' E 135°19'4 9.2
2017-Nov-16 09:00N 34°34' E 135°14'5 9.5
2017-Nov-16 08:30N 34°34' E 135°08'510.7
2017-Nov-16 08:00N 34°36' E 135°02'  

Dump ship's entire track history